Time;durP1;ratioP1;P1;durP2;ratioP2;P2;SDS_P1;SDS_P2;PMS_P1;PMS_P2;Temp;Humidity;BMP_temperature;BMP_pressure;BME280_temperature;BME280_humidity;BME280_pressure;Samples;Min_cycle;Max_cycle;Signal;HPM_P1;HPM_P2
2023/10/11 00:01:11;;;;;;;13.03;10.90;;;14.60;99.90;;;;;;5119968;28;20462;-55
2023/10/11 00:03:45;;;;;;;18.00;11.40;;;14.60;99.90;;;;;;5112985;28;20539;-54
2023/10/11 00:06:14;;;;;;;19.20;11.90;;;14.60;99.90;;;;;;5113924;27;20501;-54
2023/10/11 00:08:41;;;;;;;13.13;10.97;;;14.70;99.90;;;;;;5114990;27;20483;-54
2023/10/11 00:11:18;;;;;;;14.87;10.50;;;14.70;99.90;;;;;;5113130;27;20454;-54
2023/10/11 00:13:48;;;;;;;14.00;10.30;;;14.70;99.90;;;;;;5117345;27;20463;-54
2023/10/11 00:16:17;;;;;;;16.57;12.00;;;14.70;99.90;;;;;;5116451;27;20458;-54
2023/10/11 00:18:49;;;;;;;25.63;12.20;;;14.70;99.90;;;;;;5123218;27;20486;-55
2023/10/11 00:21:40;;;;;;;14.87;10.90;;;14.70;99.90;;;;;;5122149;27;20462;-54
2023/10/11 00:24:10;;;;;;;16.53;11.10;;;14.70;99.90;;;;;;5120561;27;20470;-54
2023/10/11 00:26:40;;;;;;;18.57;10.70;;;14.70;99.90;;;;;;5120707;27;20462;-54
2023/10/11 00:29:14;;;;;;;17.07;9.97;;;14.70;99.90;;;;;;5120542;27;20842;-54
2023/10/11 00:31:41;;;;;;;20.83;10.67;;;14.70;99.90;;;;;;5119504;27;20828;-54
2023/10/11 00:34:12;;;;;;;18.70;10.33;;;14.70;99.90;;;;;;5117460;27;20478;-54
2023/10/11 00:36:45;;;;;;;16.63;11.33;;;14.70;99.90;;;;;;5123198;27;20828;-53
2023/10/11 00:41:59;;;;;;;16.80;9.83;;;14.70;99.90;;;;;;5107284;27;20470;-54
2023/10/11 00:44:32;;;;;;;17.77;10.37;;;14.70;99.90;;;;;;5113062;27;20486;-54
2023/10/11 00:47:00;;;;;;;17.13;9.40;;;14.70;99.90;;;;;;5117830;27;21050;-53
2023/10/11 00:49:36;;;;;;;16.93;10.40;;;14.70;99.90;;;;;;5123032;27;20593;-54
2023/10/11 00:52:06;;;;;;;19.53;9.63;;;14.60;99.90;;;;;;5120378;27;20511;-55
2023/10/11 00:54:34;;;;;;;22.20;9.07;;;14.60;99.90;;;;;;5119091;27;20455;-54
2023/10/11 00:57:03;;;;;;;15.47;10.53;;;14.60;99.90;;;;;;5116389;27;20508;-54
2023/10/11 00:59:33;;;;;;;11.00;9.57;;;14.60;1.40;;;;;;5124193;27;20538;-54
2023/10/11 01:02:00;;;;;;;17.47;9.57;;;14.60;1.40;;;;;;5115810;27;20520;-54
2023/10/11 01:04:34;;;;;;;15.53;9.50;;;14.60;99.90;;;;;;5122844;27;20983;-54
2023/10/11 01:07:08;;;;;;;16.60;9.47;;;14.60;99.90;;;;;;5123734;27;20508;-54
2023/10/11 01:09:37;;;;;;;16.67;9.60;;;14.60;99.90;;;;;;5119698;27;20482;-54
2023/10/11 01:12:10;;;;;;;14.90;10.10;;;14.60;99.90;;;;;;5119614;27;20931;-54
2023/10/11 01:14:57;;;;;;;14.57;8.70;;;14.60;99.90;;;;;;5113813;27;20458;-54
2023/10/11 01:17:25;;;;;;;14.47;10.13;;;14.60;99.90;;;;;;5127217;27;20846;-54
2023/10/11 01:19:57;;;;;;;12.37;9.23;;;14.50;99.90;;;;;;5113736;27;20487;-55
2023/10/11 01:22:30;;;;;;;15.30;9.33;;;14.60;99.90;;;;;;5121750;27;20454;-54
2023/10/11 01:25:00;;;;;;;12.93;9.70;;;14.60;99.90;;;;;;5116201;27;20906;-54
2023/10/11 01:27:31;;;;;;;11.77;8.40;;;14.50;99.90;;;;;;5120621;27;20490;-54
2023/10/11 01:29:58;;;;;;;21.60;8.50;;;14.50;99.90;;;;;;5113849;27;20463;-54
2023/10/11 01:32:34;;;;;;;14.73;9.03;;;14.60;99.90;;;;;;5121115;27;20442;-54
2023/10/11 01:35:13;;;;;;;15.47;8.53;;;14.50;99.90;;;;;;5115888;27;20480;-54
2023/10/11 01:37:48;;;;;;;11.40;8.10;;;14.50;99.90;;;;;;5124535;27;20474;-54
2023/10/11 01:40:21;;;;;;;15.97;8.57;;;14.50;99.90;;;;;;5111802;28;20462;-54
2023/10/11 01:42:50;;;;;;;19.00;8.90;;;14.50;99.90;;;;;;5114432;27;20889;-54
2023/10/11 01:45:23;;;;;;;13.73;8.93;;;14.50;99.90;;;;;;5121779;27;20440;-54
2023/10/11 01:47:56;;;;;;;16.07;8.20;;;14.50;99.90;;;;;;5121370;27;20848;-54
2023/10/11 01:50:24;;;;;;;18.03;8.97;;;14.50;99.90;;;;;;5116985;27;20439;-54
2023/10/11 01:53:03;;;;;;;21.07;8.43;;;14.50;99.90;;;;;;5124468;27;20819;-55
2023/10/11 01:55:30;;;;;;;15.87;8.03;;;14.40;99.90;;;;;;5115626;27;20530;-54
2023/10/11 01:57:57;;;;;;;22.17;8.53;;;14.40;99.90;;;;;;5125705;27;20891;-54
2023/10/11 02:00:32;;;;;;;13.03;8.23;;;14.40;99.90;;;;;;5115283;27;20465;-54
2023/10/11 02:03:03;;;;;;;13.63;8.07;;;14.40;99.90;;;;;;5124466;27;20469;-54
2023/10/11 02:05:39;;;;;;;14.27;8.43;;;14.40;99.90;;;;;;5114383;27;20471;-54
2023/10/11 02:08:12;;;;;;;8.40;6.47;;;14.30;99.90;;;;;;5116535;27;20487;-54
2023/10/11 02:10:44;;;;;;;15.30;7.73;;;14.30;99.90;;;;;;5113549;27;20529;-54
2023/10/11 02:13:23;;;;;;;12.60;7.67;;;14.20;99.90;;;;;;5126336;27;20892;-54
2023/10/11 02:15:59;;;;;;;14.33;7.83;;;14.10;99.90;;;;;;5118350;27;20544;-54
2023/10/11 02:18:26;;;;;;;11.87;8.03;;;14.10;99.90;;;;;;5097928;22;20858;-60
2023/10/11 02:20:55;;;;;;;12.30;7.23;;;14.10;99.90;;;;;;5064678;28;20550;-59
2023/10/11 02:23:25;;;;;;;12.37;8.20;;;14.00;99.90;;;;;;5063646;28;20457;-60
2023/10/11 02:25:52;;;;;;;13.80;7.70;;;13.90;99.90;;;;;;5068149;28;20464;-59
2023/10/11 02:28:21;;;;;;;12.80;7.60;;;13.90;99.90;;;;;;5061148;28;20481;-60
2023/10/11 02:30:49;;;;;;;11.70;7.70;;;13.80;99.90;;;;;;5048828;28;20462;-60
2023/10/11 02:33:17;;;;;;;15.63;7.03;;;13.80;99.90;;;;;;5048538;28;20549;-60
2023/10/11 02:35:55;;;;;;;14.00;7.77;;;13.70;99.90;;;;;;5044953;28;21150;-60
2023/10/11 02:38:23;;;;;;;19.73;8.07;;;13.70;99.90;;;;;;5044834;28;20820;-60
2023/10/11 02:40:55;;;;;;;14.70;7.97;;;13.70;99.90;;;;;;5043818;28;20466;-60
2023/10/11 02:43:23;;;;;;;11.30;6.97;;;13.80;99.90;;;;;;5047507;28;20485;-59
2023/10/11 02:45:50;;;;;;;27.43;8.63;;;13.80;99.90;;;;;;5048434;28;20458;-60
2023/10/11 02:48:19;;;;;;;13.07;7.80;;;13.80;99.90;;;;;;5045858;28;20481;-60
2023/10/11 02:50:46;;;;;;;17.33;8.30;;;13.90;99.90;;;;;;5047755;28;20511;-59
2023/10/11 02:53:21;;;;;;;15.20;7.67;;;13.90;99.90;;;;;;5038086;28;20493;-59
2023/10/11 02:55:57;;;;;;;14.20;7.20;;;13.90;99.90;;;;;;5043820;28;20461;-60
2023/10/11 02:58:24;;;;;;;13.30;7.57;;;13.90;99.90;;;;;;5043259;28;20841;-61
2023/10/11 03:00:56;;;;;;;10.50;8.07;;;13.90;99.90;;;;;;5044939;28;20484;-60
2023/10/11 03:03:26;;;;;;;11.77;7.90;;;13.90;99.90;;;;;;5050204;28;20462;-60
2023/10/11 03:05:53;;;;;;;21.10;7.20;;;14.00;99.90;;;;;;5040149;28;20963;-60
2023/10/11 03:08:21;;;;;;;12.90;7.17;;;14.00;99.90;;;;;;5048698;28;20562;-59
2023/10/11 03:10:54;;;;;;;14.00;7.33;;;14.10;99.90;;;;;;5040318;28;20462;-60
2023/10/11 03:13:24;;;;;;;24.40;8.10;;;14.10;99.90;;;;;;5046717;28;20462;-59
2023/10/11 03:15:54;;;;;;;14.37;7.57;;;14.10;99.90;;;;;;5042053;28;20457;-59
2023/10/11 03:18:25;;;;;;;9.17;6.60;;;14.10;99.90;;;;;;5041443;28;20488;-59
2023/10/11 03:20:58;;;;;;;10.30;7.10;;;14.10;99.90;;;;;;5044257;28;20473;-61
2023/10/11 03:23:27;;;;;;;17.63;8.43;;;14.10;99.90;;;;;;5046039;28;20864;-60
2023/10/11 03:25:56;;;;;;;13.70;6.70;;;14.10;99.90;;;;;;5039859;28;20832;-61
2023/10/11 03:28:26;;;;;;;10.40;7.80;;;14.10;99.90;;;;;;5045874;28;20496;-60
2023/10/11 03:30:53;;;;;;;16.10;7.53;;;14.10;99.90;;;;;;5046263;28;20537;-59
2023/10/11 03:33:21;;;;;;;20.43;7.70;;;14.00;99.90;;;;;;5047076;28;20518;-61
2023/10/11 03:35:48;;;;;;;16.13;8.27;;;14.10;99.90;;;;;;5046784;28;20834;-63
2023/10/11 03:38:17;;;;;;;12.47;7.13;;;14.10;99.90;;;;;;5049056;28;21031;-61
2023/10/11 03:41:10;;;;;;;13.73;7.80;;;14.10;99.90;;;;;;5045197;28;20461;-61
2023/10/11 03:43:40;;;;;;;15.10;6.93;;;14.10;99.90;;;;;;5044708;28;20466;-60
2023/10/11 03:46:09;;;;;;;17.70;7.70;;;14.10;99.90;;;;;;5050232;28;20453;-60
2023/10/11 03:48:44;;;;;;;14.53;7.10;;;14.10;99.90;;;;;;5050897;28;20516;-59
2023/10/11 03:51:11;;;;;;;14.17;7.43;;;14.20;99.90;;;;;;5047936;28;20501;-60
2023/10/11 03:53:39;;;;;;;11.70;7.10;;;14.20;99.90;;;;;;5047032;28;20462;-59
2023/10/11 03:56:06;;;;;;;16.40;7.10;;;14.20;99.90;;;;;;5052888;28;20527;-59
2023/10/11 03:58:37;;;;;;;19.77;7.10;;;14.20;99.90;;;;;;5046455;28;20470;-60
2023/10/11 04:01:12;;;;;;;13.50;7.60;;;14.20;99.90;;;;;;5048771;28;20503;-59
2023/10/11 04:03:39;;;;;;;14.00;7.50;;;14.20;99.90;;;;;;5054052;28;20492;-61
2023/10/11 04:06:13;;;;;;;15.60;7.67;;;14.20;99.90;;;;;;5050120;28;20552;-60
2023/10/11 04:08:41;;;;;;;16.03;7.73;;;14.20;99.90;;;;;;5046813;28;20496;-59
2023/10/11 04:11:14;;;;;;;11.20;7.03;;;14.20;99.90;;;;;;5046939;28;20545;-59
2023/10/11 04:13:44;;;;;;;17.17;7.20;;;14.20;99.90;;;;;;5051249;28;20843;-60
2023/10/11 04:16:14;;;;;;;13.77;8.33;;;14.20;99.90;;;;;;5044445;28;20511;-59
2023/10/11 04:18:40;;;;;;;12.03;6.30;;;14.20;99.90;;;;;;5049408;28;20478;-59
2023/10/11 04:21:26;;;;;;;10.30;7.10;;;14.20;94.30;;;;;;5047501;28;20516;-60
2023/10/11 04:23:55;;;;;;;8.97;7.00;;;14.20;79.10;;;;;;5051697;28;20507;-59
2023/10/11 04:26:33;;;;;;;20.30;8.17;;;14.20;22.50;;;;;;5042867;28;20462;-59
2023/10/11 04:29:06;;;;;;;16.63;6.90;;;14.20;23.80;;;;;;5039155;28;20862;-61
2023/10/11 04:31:36;;;;;;;14.63;6.27;;;14.20;24.70;;;;;;5045543;28;20573;-59
2023/10/11 04:34:11;;;;;;;24.00;6.57;;;14.20;25.00;;;;;;5051144;28;20493;-59
2023/10/11 04:36:42;;;;;;;10.53;6.40;;;14.10;24.10;;;;;;5047478;28;20472;-59
2023/10/11 04:39:15;;;;;;;18.90;7.77;;;14.10;22.30;;;;;;5045194;28;20485;-60
2023/10/11 04:41:49;;;;;;;13.50;7.30;;;14.10;80.00;;;;;;5041564;28;20464;-59
2023/10/11 04:44:17;;;;;;;11.23;7.23;;;14.10;21.20;;;;;;5042073;28;20576;-60
2023/10/11 04:46:57;;;;;;;13.03;7.13;;;14.10;21.50;;;;;;5044069;28;20511;-59
2023/10/11 04:49:24;;;;;;;7.47;6.60;;;14.10;21.40;;;;;;5044582;28;20509;-56
2023/10/11 04:51:55;;;;;;;23.80;7.37;;;14.10;21.30;;;;;;5045658;28;20919;-57
2023/10/11 04:54:35;;;;;;;10.07;7.00;;;14.10;21.30;;;;;;5049417;28;20486;-56
2023/10/11 04:57:06;;;;;;;9.77;6.50;;;14.10;22.10;;;;;;5042654;28;20468;-56
2023/10/11 04:59:36;;;;;;;13.73;7.10;;;14.10;24.10;;;;;;5047845;28;20493;-56
2023/10/11 05:02:11;;;;;;;14.90;7.20;;;14.10;26.30;;;;;;5048588;28;20462;-56
2023/10/11 05:04:44;;;;;;;10.17;6.60;;;14.30;35.20;;;;;;5046222;28;20536;-56
2023/10/11 05:07:13;;;;;;;14.70;7.23;;;14.20;36.90;;;;;;5050704;28;20509;-56
2023/10/11 05:09:41;;;;;;;11.00;7.17;;;14.20;39.50;;;;;;5045931;28;20569;-56
2023/10/11 05:12:10;;;;;;;12.57;7.80;;;14.30;42.20;;;;;;5046035;28;20821;-56
2023/10/11 05:14:40;;;;;;;19.73;7.17;;;14.30;48.40;;;;;;5054609;28;20457;-56
2023/10/11 05:17:32;;;;;;;14.63;8.27;;;14.40;53.90;;;;;;5042032;28;20852;-56
2023/10/11 05:20:22;;;;;;;17.40;7.97;;;14.40;56.50;;;;;;5050315;28;20462;-56
2023/10/11 05:22:49;;;;;;;10.60;6.93;;;14.50;61.00;;;;;;5045764;28;20558;-56
2023/10/11 05:25:38;;;;;;;10.17;6.60;;;14.50;64.00;;;;;;5046447;28;20461;-56
2023/10/11 05:28:15;;;;;;;12.20;7.10;;;14.60;68.40;;;;;;5044078;28;20505;-56
2023/10/11 05:30:44;;;;;;;13.10;6.93;;;14.60;69.00;;;;;;5047728;28;20453;-56
2023/10/11 05:33:41;;;;;;;11.13;6.83;;;14.70;77.30;;;;;;5047136;28;20470;-57
2023/10/11 05:36:17;;;;;;;16.77;7.17;;;14.70;75.00;;;;;;5045210;28;20481;-57
2023/10/11 05:52:26;;;;;;;12.83;6.73;;;14.80;85.40;;;;;;5042869;28;20481;-58
2023/10/11 05:54:54;;;;;;;13.43;6.90;;;14.80;90.60;;;;;;5047365;28;20462;-58
2023/10/11 05:57:23;;;;;;;16.93;7.00;;;14.80;90.10;;;;;;5049426;28;20449;-57
2023/10/11 05:59:50;;;;;;;17.43;6.27;;;14.80;89.80;;;;;;5050749;28;20472;-57
2023/10/11 06:02:18;;;;;;;16.63;7.37;;;14.80;89.50;;;;;;5044894;28;20955;-58
2023/10/11 06:04:47;;;;;;;29.00;6.53;;;14.80;90.80;;;;;;5045802;28;20454;-57
2023/10/11 06:07:19;;;;;;;21.10;6.10;;;14.80;91.10;;;;;;5044473;28;20453;-57
2023/10/11 06:09:46;;;;;;;12.83;7.27;;;14.80;94.40;;;;;;5045109;28;20899;-58
2023/10/11 06:12:23;;;;;;;8.10;6.17;;;14.90;97.10;;;;;;5041559;28;20524;-57
2023/10/11 06:14:51;;;;;;;11.70;6.57;;;14.90;99.50;;;;;;5041337;28;20499;-57
2023/10/11 06:17:21;;;;;;;10.10;6.60;;;15.00;99.90;;;;;;5048643;28;20515;-61
2023/10/11 06:19:54;;;;;;;11.00;6.13;;;15.00;99.90;;;;;;5047401;28;20462;-58
2023/10/11 06:22:21;;;;;;;17.53;6.70;;;15.00;99.90;;;;;;5034213;28;20481;-59
2023/10/11 06:24:48;;;;;;;13.33;6.80;;;15.00;99.90;;;;;;5045406;28;20985;-56
2023/10/11 06:29:56;;;;;;;8.43;6.00;;;15.10;99.90;;;;;;5043904;28;20511;-57
2023/10/11 06:32:23;;;;;;;12.73;6.00;;;15.10;99.90;;;;;;5041608;28;20501;-57
2023/10/11 06:34:52;;;;;;;12.40;6.13;;;15.10;99.90;;;;;;5046005;28;20975;-57
2023/10/11 06:37:24;;;;;;;12.53;6.57;;;15.10;99.90;;;;;;5046173;28;20516;-57
2023/10/11 06:40:08;;;;;;;11.27;6.43;;;15.10;99.90;;;;;;5048744;28;20834;-58
2023/10/11 06:42:34;;;;;;;11.37;5.57;;;15.30;99.90;;;;;;5035850;28;20464;-58
2023/10/11 06:45:05;;;;;;;21.43;7.00;;;15.30;99.90;;;;;;5052333;28;20438;-56
2023/10/11 06:47:33;;;;;;;13.37;6.27;;;15.30;99.90;;;;;;5051688;28;20226;-56
2023/10/11 06:50:10;;;;;;;10.70;6.43;;;15.50;99.90;;;;;;5051293;28;21054;-57
2023/10/11 06:52:43;;;;;;;11.80;6.00;;;15.60;99.90;;;;;;5045645;28;20465;-57
2023/10/11 06:55:16;;;;;;;14.87;6.03;;;15.70;99.90;;;;;;5048364;28;20830;-57
2023/10/11 06:57:50;;;;;;;15.60;7.63;;;15.70;99.90;;;;;;5048649;28;20461;-57
2023/10/11 07:00:23;;;;;;;15.17;6.40;;;15.80;99.90;;;;;;5048884;28;20442;-58
2023/10/11 07:02:52;;;;;;;17.63;6.10;;;15.80;99.90;;;;;;5051185;28;20807;-57
2023/10/11 07:05:21;;;;;;;11.90;6.47;;;15.90;99.90;;;;;;5042504;28;20465;-58
2023/10/11 07:07:48;;;;;;;10.13;6.20;;;16.00;99.90;;;;;;5043542;28;20485;-58
2023/10/11 07:10:31;;;;;;;18.20;6.30;;;16.10;99.90;;;;;;5050617;28;20532;-58
2023/10/11 07:13:05;;;;;;;14.10;6.33;;;16.00;99.90;;;;;;5045328;28;20452;-58
2023/10/11 07:15:42;;;;;;;7.90;5.87;;;16.20;99.90;;;;;;5045929;28;20456;-58
2023/10/11 07:18:11;;;;;;;11.57;5.50;;;16.30;99.90;;;;;;5049401;28;20543;-58
2023/10/11 07:21:06;;;;;;;24.40;6.93;;;16.30;99.90;;;;;;5046235;28;20865;-58
2023/10/11 07:23:46;;;;;;;8.20;5.93;;;16.30;99.90;;;;;;5043200;28;20489;-58
2023/10/11 07:26:48;;;;;;;13.50;7.00;;;16.40;99.90;;;;;;5051712;28;20959;-57
2023/10/11 07:29:13;;;;;;;9.97;5.67;;;16.50;99.90;;;;;;5045815;28;20473;-57
2023/10/11 07:31:48;;;;;;;13.70;6.83;;;16.50;99.90;;;;;;5050482;28;20468;-57
2023/10/11 07:34:17;;;;;;;10.30;6.63;;;16.50;99.90;;;;;;5049756;28;20966;-56
2023/10/11 07:36:48;;;;;;;13.40;7.00;;;16.60;99.90;;;;;;5049891;28;20457;-58
2023/10/11 07:39:19;;;;;;;18.67;6.80;;;16.60;99.90;;;;;;5047042;28;20469;-62
2023/10/11 07:41:47;;;;;;;20.03;6.70;;;16.70;99.90;;;;;;5047021;28;20465;-57
2023/10/11 07:44:14;;;;;;;12.93;6.20;;;16.80;99.90;;;;;;5042533;28;20938;-56
2023/10/11 07:46:41;;;;;;;15.10;6.53;;;16.90;99.90;;;;;;5047395;28;20947;-56
2023/10/11 07:49:14;;;;;;;15.93;6.80;;;17.00;99.90;;;;;;5046768;28;20489;-57
2023/10/11 07:51:42;;;;;;;15.10;6.77;;;17.10;99.90;;;;;;5050869;28;20846;-57
2023/10/11 07:54:19;;;;;;;19.70;6.20;;;17.20;99.90;;;;;;5052444;28;20825;-57
2023/10/11 07:56:46;;;;;;;24.17;8.07;;;17.20;99.90;;;;;;5043864;28;20545;-57
2023/10/11 07:59:13;;;;;;;14.00;6.00;;;17.30;99.90;;;;;;5050316;28;20510;-61
2023/10/11 08:01:43;;;;;;;12.00;6.70;;;17.30;99.90;;;;;;5049277;28;20511;-58
2023/10/11 08:04:10;;;;;;;15.73;6.20;;;17.30;99.90;;;;;;5052357;28;20503;-56
2023/10/11 08:06:39;;;;;;;11.33;6.03;;;17.40;99.90;;;;;;5048189;28;20457;-57
2023/10/11 08:09:06;;;;;;;6.90;5.20;;;17.40;99.90;;;;;;5042215;28;20572;-57
2023/10/11 08:11:44;;;;;;;20.97;6.50;;;17.40;99.90;;;;;;5047121;28;20539;-58
2023/10/11 08:14:15;;;;;;;8.37;5.40;;;17.50;99.90;;;;;;5048088;28;20913;-58
2023/10/11 08:16:42;;;;;;;9.20;6.87;;;17.50;99.90;;;;;;5046496;28;20465;-56
2023/10/11 08:19:11;;;;;;;7.77;5.87;;;17.60;99.90;;;;;;5050159;22;20580;-55
2023/10/11 08:21:38;;;;;;;20.43;6.20;;;17.60;99.90;;;;;;5025783;28;20541;-55
2023/10/11 08:24:06;;;;;;;12.10;5.87;;;17.70;99.90;;;;;;5032997;28;20751;-56
2023/10/11 08:26:42;;;;;;;15.43;5.70;;;17.80;99.90;;;;;;5036386;28;20545;-57
2023/10/11 08:29:16;;;;;;;12.40;6.20;;;17.80;99.90;;;;;;5027866;28;20756;-56
2023/10/11 08:31:44;;;;;;;12.67;5.83;;;17.90;99.90;;;;;;5027962;28;20458;-56
2023/10/11 08:34:14;;;;;;;10.77;6.10;;;18.00;99.90;;;;;;5027200;28;20459;-56
2023/10/11 08:36:43;;;;;;;10.17;5.10;;;18.10;99.90;;;;;;5031090;28;20469;-56
2023/10/11 08:39:13;;;;;;;18.53;5.47;;;18.20;99.90;;;;;;5031021;28;20574;-56
2023/10/11 08:41:43;;;;;;;11.77;5.50;;;18.30;99.90;;;;;;5019721;28;20473;-56
2023/10/11 08:44:20;;;;;;;14.47;5.63;;;18.40;99.90;;;;;;5032858;28;20454;-56
2023/10/11 08:46:49;;;;;;;8.70;5.50;;;18.40;20.50;;;;;;5028045;28;20454;-56
2023/10/11 08:49:17;;;;;;;12.00;5.70;;;18.80;31.00;;;;;;5024677;28;21186;-55
2023/10/11 08:51:44;;;;;;;8.53;5.60;;;19.00;46.80;;;;;;5023493;28;20459;-56
2023/10/11 08:54:12;;;;;;;13.77;6.53;;;19.20;59.80;;;;;;5031113;28;20458;-55
2023/10/11 08:56:45;;;;;;;21.63;6.57;;;19.10;55.80;;;;;;5020553;28;20870;-56
2023/10/11 08:59:15;;;;;;;16.00;5.70;;;19.00;62.40;;;;;;5022711;28;20485;-55
2023/10/11 09:01:45;;;;;;;14.10;6.37;;;19.10;63.10;;;;;;5017282;28;21056;-56
2023/10/11 09:04:13;;;;;;;16.43;6.10;;;19.20;70.40;;;;;;5024228;28;20471;-55
2023/10/11 09:06:42;;;;;;;14.73;5.80;;;19.20;67.00;;;;;;5017775;28;20965;-55
2023/10/11 09:09:15;;;;;;;12.03;5.30;;;19.20;66.10;;;;;;5022539;28;20489;-55
2023/10/11 09:11:54;;;;;;;14.47;6.03;;;19.20;70.70;;;;;;5019694;28;20493;-55
2023/10/11 09:14:23;;;;;;;16.60;6.27;;;19.30;70.70;;;;;;5022287;28;20467;-55
2023/10/11 09:16:51;;;;;;;21.33;5.53;;;19.40;71.30;;;;;;5021964;28;20558;-55
2023/10/11 09:19:19;;;;;;;16.77;6.57;;;19.60;72.40;;;;;;5019107;28;20490;-55
2023/10/11 09:22:00;;;;;;;10.53;5.67;;;19.70;83.40;;;;;;5024057;28;20490;-55
2023/10/11 09:24:28;;;;;;;13.03;5.70;;;19.80;99.00;;;;;;5023475;28;20871;-55
2023/10/11 09:27:17;;;;;;;15.40;5.70;;;19.80;98.70;;;;;;5031285;28;20966;-56
2023/10/11 09:29:46;;;;;;;14.90;5.43;;;20.00;97.70;;;;;;5024170;28;20835;-57
2023/10/11 09:32:13;;;;;;;17.93;5.10;;;20.10;99.90;;;;;;5018067;28;20463;-55
2023/10/11 09:34:41;;;;;;;11.30;4.80;;;20.20;99.90;;;;;;5031213;28;20535;-55
2023/10/11 09:37:11;;;;;;;21.60;5.20;;;20.10;99.90;;;;;;5023854;28;20462;-55
2023/10/11 09:39:37;;;;;;;19.07;6.20;;;20.20;99.90;;;;;;5026474;28;20483;-56
2023/10/11 09:42:10;;;;;;;18.33;5.87;;;20.20;99.90;;;;;;5022763;28;20494;-56
2023/10/11 09:44:39;;;;;;;88.37;11.97;;;20.40;99.90;;;;;;5021181;28;20525;-56
2023/10/11 09:47:08;;;;;;;13.83;4.57;;;20.40;99.90;;;;;;5024800;28;20478;-55
2023/10/11 09:49:41;;;;;;;28.63;8.03;;;20.40;99.90;;;;;;5020885;28;20497;-55
2023/10/11 09:52:09;;;;;;;18.80;5.87;;;20.40;99.90;;;;;;5028695;28;20455;-56
2023/10/11 09:54:37;;;;;;;11.70;5.87;;;20.50;99.90;;;;;;5026591;28;20486;-55
2023/10/11 09:57:15;;;;;;;9.80;4.87;;;20.70;99.90;;;;;;5031537;28;20463;-55
2023/10/11 09:59:49;;;;;;;12.20;4.90;;;20.70;99.90;;;;;;5027301;28;20827;-56
2023/10/11 10:02:22;;;;;;;16.40;5.10;;;20.70;99.90;;;;;;5028786;28;20883;-56
2023/10/11 10:04:55;;;;;;;15.03;6.17;;;20.90;99.90;;;;;;5031748;28;20528;-55
2023/10/11 10:07:25;;;;;;;7.03;4.70;;;21.00;99.90;;;;;;5028155;28;24129;-55
2023/10/11 10:09:54;;;;;;;13.37;5.37;;;21.10;99.90;;;;;;5031317;28;20491;-57
2023/10/11 10:12:25;;;;;;;22.20;5.00;;;21.10;99.90;;;;;;5027916;28;20556;-54
2023/10/11 10:15:04;;;;;;;10.53;5.47;;;21.10;99.90;;;;;;5027422;28;20945;-54
2023/10/11 10:17:31;;;;;;;11.80;4.50;;;21.20;99.90;;;;;;5022822;28;20459;-55
2023/10/11 10:20:17;;;;;;;27.03;5.03;;;21.20;99.90;;;;;;5025266;28;20537;-55
2023/10/11 10:23:22;;;;;;;15.70;5.30;;;21.10;99.90;;;;;;5021159;28;20460;-56
2023/10/11 10:25:50;;;;;;;9.50;4.83;;;21.00;99.90;;;;;;5023763;28;20512;-55
2023/10/11 10:28:52;;;;;;;8.97;4.80;;;21.00;99.90;;;;;;5024661;28;20544;-55
2023/10/11 10:31:21;;;;;;;26.90;5.03;;;20.90;99.90;;;;;;5028412;28;20454;-56
2023/10/11 10:33:50;;;;;;;16.63;4.80;;;21.10;99.90;;;;;;5030950;28;20463;-56
2023/10/11 10:36:40;;;;;;;10.87;4.97;;;21.30;99.90;;;;;;5026790;28;20471;-56
2023/10/11 10:42:12;;;;;;;15.70;5.67;;;21.20;99.90;;;;;;5021374;28;20826;-56
2023/10/11 10:44:49;;;;;;;15.17;4.50;;;21.30;99.90;;;;;;5023953;28;20469;-55
2023/10/11 10:47:32;;;;;;;14.87;4.50;;;21.20;99.90;;;;;;5025868;28;20466;-55
2023/10/11 10:50:08;;;;;;;12.17;4.97;;;21.30;99.90;;;;;;5028411;28;20493;-55
2023/10/11 10:52:35;;;;;;;16.90;4.87;;;21.40;99.90;;;;;;5021148;28;20454;-56
2023/10/11 10:55:02;;;;;;;15.73;4.57;;;21.40;99.90;;;;;;5015690;28;20508;-56
2023/10/11 10:57:31;;;;;;;5.13;4.20;;;21.40;99.90;;;;;;5018141;28;20455;-56
2023/10/11 10:59:59;;;;;;;9.43;4.83;;;21.50;99.90;;;;;;5019545;28;20450;-55
2023/10/11 11:02:26;;;;;;;11.07;4.70;;;21.50;99.90;;;;;;5026025;28;21548;-55
2023/10/11 11:04:54;;;;;;;13.00;5.30;;;21.50;99.90;;;;;;5038523;28;20455;-56
2023/10/11 11:07:23;;;;;;;27.53;5.70;;;21.60;99.90;;;;;;5022484;28;20519;-55
2023/10/11 11:09:54;;;;;;;9.20;4.97;;;21.60;99.90;;;;;;5019176;28;20479;-56
2023/10/11 11:12:27;;;;;;;9.13;4.80;;;21.60;99.90;;;;;;5020785;28;20554;-55
2023/10/11 11:14:55;;;;;;;5.03;3.90;;;21.60;99.90;;;;;;5026518;28;20539;-55
2023/10/11 11:17:24;;;;;;;9.57;5.30;;;21.70;99.90;;;;;;5028339;28;20522;-55
2023/10/11 11:20:13;;;;;;;10.17;5.30;;;21.60;99.90;;;;;;5021453;28;20468;-56
2023/10/11 11:22:40;;;;;;;12.50;5.10;;;21.70;99.90;;;;;;5023886;28;20451;-56
2023/10/11 11:25:17;;;;;;;10.80;4.53;;;21.70;99.90;;;;;;5022285;28;20882;-55
2023/10/11 11:27:44;;;;;;;11.07;5.17;;;21.80;99.90;;;;;;5023267;28;20555;-55
2023/10/11 11:30:17;;;;;;;14.00;5.03;;;21.80;99.90;;;;;;5030083;28;20506;-56
2023/10/11 11:32:45;;;;;;;8.83;5.60;;;21.80;99.90;;;;;;5031059;28;20474;-55
2023/10/11 11:35:28;;;;;;;6.90;5.10;;;21.90;99.90;;;;;;5022818;28;20885;-55
2023/10/11 11:38:02;;;;;;;9.50;4.57;;;21.90;99.90;;;;;;5023011;28;20555;-56
2023/10/11 11:40:31;;;;;;;57.80;9.83;;;22.00;99.90;;;;;;5026566;28;20450;-56
2023/10/11 11:43:00;;;;;;;21.37;4.43;;;22.00;1.40;;;;;;5031284;28;20508;-55
2023/10/11 11:45:29;;;;;;;12.87;4.07;;;22.10;99.90;;;;;;5030899;28;20447;-56
2023/10/11 11:47:57;;;;;;;11.63;4.37;;;22.10;99.90;;;;;;5026007;28;20474;-56
2023/10/11 11:50:23;;;;;;;17.87;5.20;;;22.20;99.90;;;;;;5023843;28;20532;-55
2023/10/11 11:52:50;;;;;;;17.70;4.93;;;22.10;99.90;;;;;;5018972;28;20459;-55
2023/10/11 11:55:17;;;;;;;8.73;4.70;;;22.20;99.90;;;;;;5023696;28;20401;-55
2023/10/11 11:57:43;;;;;;;10.40;5.00;;;22.30;99.90;;;;;;5022069;28;20482;-56
2023/10/11 12:00:28;;;;;;;13.90;5.10;;;22.50;99.90;;;;;;5026205;28;20558;-56
2023/10/11 12:02:58;;;;;;;16.03;4.60;;;22.70;99.90;;;;;;5028744;28;20461;-56
2023/10/11 12:05:26;;;;;;;10.30;5.20;;;23.10;99.90;;;;;;5029351;28;21633;-56
2023/10/11 12:07:57;;;;;;;10.50;4.87;;;23.10;99.90;;;;;;5031537;28;20487;-56
2023/10/11 12:10:24;;;;;;;8.90;4.57;;;23.20;99.90;;;;;;5029708;28;20490;-55
2023/10/11 12:12:51;;;;;;;13.03;4.73;;;23.00;99.90;;;;;;5031568;28;20463;-55
2023/10/11 12:15:18;;;;;;;75.57;9.90;;;23.10;99.90;;;;;;5022970;28;20948;-56
2023/10/11 12:17:44;;;;;;;13.33;4.50;;;23.00;99.90;;;;;;5026127;28;20526;-56
2023/10/11 12:20:15;;;;;;;20.73;4.80;;;22.80;99.90;;;;;;5024654;28;20474;-55
2023/10/11 12:22:43;;;;;;;10.80;4.60;;;22.70;99.90;;;;;;5026130;28;20463;-54
2023/10/11 12:25:10;;;;;;;24.47;5.20;;;22.60;99.90;;;;;;5031473;28;21810;-54
2023/10/11 12:27:40;;;;;;;13.20;4.93;;;22.50;99.90;;;;;;5028712;28;20490;-55
2023/10/11 12:30:10;;;;;;;8.87;5.27;;;22.40;99.90;;;;;;5032055;28;20573;-55
2023/10/11 12:32:37;;;;;;;14.90;5.20;;;22.50;99.90;;;;;;5031664;28;20459;-55
2023/10/11 12:35:08;;;;;;;16.63;5.30;;;22.40;1.40;;;;;;5030893;28;20803;-55
2023/10/11 12:37:35;;;;;;;28.30;4.60;;;22.40;99.90;;;;;;5028096;28;20465;-56
2023/10/11 12:40:11;;;;;;;9.70;4.50;;;22.40;99.90;;;;;;5029586;28;20455;-55
2023/10/11 12:42:37;;;;;;;16.70;5.40;;;22.40;99.90;;;;;;5029245;28;20537;-55
2023/10/11 12:45:07;;;;;;;10.50;4.30;;;22.40;99.90;;;;;;5027872;28;20533;-55
2023/10/11 12:47:34;;;;;;;8.33;4.60;;;22.40;99.90;;;;;;5026967;28;20459;-56
2023/10/11 12:50:02;;;;;;;11.73;4.90;;;22.50;99.90;;;;;;5030891;28;20501;-55
2023/10/11 12:52:30;;;;;;;9.33;5.20;;;22.50;99.90;;;;;;5024695;28;20466;-55
2023/10/11 12:55:00;;;;;;;8.40;4.50;;;22.50;99.90;;;;;;5034138;28;20459;-54
2023/10/11 12:57:27;;;;;;;19.73;4.83;;;22.70;1.40;;;;;;5020747;28;20968;-54
2023/10/11 12:59:54;;;;;;;15.37;5.57;;;22.70;99.90;;;;;;5032452;28;20467;-55
2023/10/11 13:02:21;;;;;;;6.60;4.70;;;22.90;99.90;;;;;;5025351;28;20880;-57
2023/10/11 13:04:49;;;;;;;21.50;5.73;;;22.80;99.90;;;;;;5027447;28;20471;-56
2023/10/11 13:07:15;;;;;;;14.07;5.43;;;22.80;1.40;;;;;;5028620;28;20470;-55
2023/10/11 13:09:42;;;;;;;7.57;4.60;;;22.70;99.90;;;;;;5027404;28;20527;-55
2023/10/11 13:12:17;;;;;;;11.53;4.40;;;22.70;99.90;;;;;;5024432;28;20520;-56
2023/10/11 13:14:44;;;;;;;17.90;4.43;;;22.70;99.90;;;;;;5020246;28;20465;-56
2023/10/11 13:17:15;;;;;;;15.63;5.00;;;22.60;99.90;;;;;;5028077;28;20469;-56
2023/10/11 13:19:43;;;;;;;9.90;4.97;;;22.60;99.90;;;;;;5019928;28;20494;-55
2023/10/11 13:22:12;;;;;;;15.53;5.40;;;22.70;99.90;;;;;;5018112;28;20458;-56